Time;durP1;ratioP1;P1;durP2;ratioP2;P2;SDS_P1;SDS_P2;PMS_P1;PMS_P2;Temp;Humidity;BMP_temperature;BMP_pressure;BME280_temperature;BME280_humidity;BME280_pressure;Samples;Min_cycle;Max_cycle;Signal;HPM_P1;HPM_P2
2021/09/02 00:00:28;;;;;;;16.45;9.70;;;14.20;99.90;;;;;;5036275;28;20017;-84
2021/09/02 00:02:54;;;;;;;15.32;9.23;;;14.20;99.90;;;;;;5036487;28;20056;-84
2021/09/02 00:05:19;;;;;;;20.83;10.15;;;14.20;99.90;;;;;;5036773;28;20035;-84
2021/09/02 00:07:45;;;;;;;17.85;9.43;;;14.10;99.90;;;;;;5055163;28;20082;-84
2021/09/02 00:10:11;;;;;;;16.13;8.35;;;14.00;99.90;;;;;;5054287;28;20471;-84
2021/09/02 00:12:37;;;;;;;16.05;8.98;;;14.00;99.90;;;;;;5036632;28;20555;-84
2021/09/02 00:15:04;;;;;;;17.45;9.02;;;14.00;99.90;;;;;;5036975;28;20052;-85
2021/09/02 00:17:29;;;;;;;15.18;8.25;;;14.00;99.90;;;;;;5055341;28;20043;-84
2021/09/02 00:19:55;;;;;;;12.88;8.15;;;13.90;99.90;;;;;;5036431;28;20111;-84
2021/09/02 00:22:20;;;;;;;17.98;8.70;;;14.00;99.90;;;;;;5035680;28;20436;-85
2021/09/02 00:24:46;;;;;;;15.23;8.63;;;13.90;99.90;;;;;;5035029;28;20052;-84
2021/09/02 00:27:12;;;;;;;14.73;8.50;;;13.90;99.90;;;;;;5034910;28;20401;-85
2021/09/02 00:29:37;;;;;;;14.32;8.45;;;13.90;99.90;;;;;;5034161;28;20074;-85
2021/09/02 00:32:03;;;;;;;14.88;7.85;;;13.80;99.90;;;;;;5034232;28;20497;-85
2021/09/02 00:34:29;;;;;;;13.48;7.90;;;13.90;99.90;;;;;;5034655;28;20029;-85
2021/09/02 00:36:54;;;;;;;12.68;7.47;;;13.90;99.90;;;;;;5034744;28;20473;-84
2021/09/02 00:39:20;;;;;;;12.95;7.70;;;13.80;99.90;;;;;;5034459;28;20020;-85
2021/09/02 00:41:46;;;;;;;15.70;7.97;;;13.80;99.90;;;;;;5036591;28;20025;-85
2021/09/02 00:44:11;;;;;;;13.57;7.55;;;13.80;99.90;;;;;;5036119;28;20033;-85
2021/09/02 00:46:37;;;;;;;14.43;7.30;;;13.80;99.90;;;;;;5036625;28;20055;-85
2021/09/02 00:49:03;;;;;;;11.88;7.60;;;13.80;99.90;;;;;;5051846;28;20099;-85
2021/09/02 00:51:28;;;;;;;15.00;8.05;;;13.80;99.90;;;;;;5051851;28;20416;-85
2021/09/02 00:53:56;;;;;;;14.75;7.88;;;13.80;99.90;;;;;;5052598;28;20033;-85
2021/09/02 00:56:24;;;;;;;14.35;8.00;;;13.80;99.90;;;;;;5036013;28;20475;-85
2021/09/02 00:58:50;;;;;;;10.85;7.43;;;13.70;99.90;;;;;;5035848;28;20028;-84
2021/09/02 01:01:17;;;;;;;14.50;7.68;;;13.70;99.90;;;;;;5035970;28;20381;-84
2021/09/02 01:03:44;;;;;;;13.07;7.45;;;13.70;99.90;;;;;;5035917;28;20428;-84
2021/09/02 01:06:09;;;;;;;16.08;7.95;;;13.70;99.90;;;;;;5053822;28;20052;-84
2021/09/02 01:08:36;;;;;;;12.73;7.53;;;13.70;99.90;;;;;;5036104;28;20472;-84
2021/09/02 01:11:02;;;;;;;15.52;7.85;;;13.70;99.90;;;;;;5035764;28;20040;-84
2021/09/02 01:13:29;;;;;;;12.65;8.38;;;13.70;99.90;;;;;;5035782;28;20024;-84
2021/09/02 01:15:55;;;;;;;15.52;7.80;;;13.60;99.90;;;;;;5052356;28;20032;-85
2021/09/02 01:18:21;;;;;;;15.07;7.95;;;13.60;99.90;;;;;;5034082;28;20028;-85
2021/09/02 01:20:47;;;;;;;13.32;7.53;;;13.60;99.90;;;;;;5051657;28;20389;-85
2021/09/02 01:23:19;;;;;;;14.35;7.07;;;13.60;99.90;;;;;;5033982;28;20393;-85
2021/09/02 01:25:45;;;;;;;13.63;7.47;;;13.70;99.90;;;;;;5034191;28;20107;-85
2021/09/02 01:28:12;;;;;;;12.07;7.30;;;13.60;99.90;;;;;;5033980;28;20078;-85
2021/09/02 01:30:39;;;;;;;15.48;7.70;;;13.60;99.90;;;;;;5033315;28;20036;-85
2021/09/02 01:33:10;;;;;;;15.50;8.85;;;13.60;99.90;;;;;;5035535;28;20135;-84
2021/09/02 01:35:36;;;;;;;15.38;7.60;;;13.60;99.90;;;;;;5036510;28;20025;-84
2021/09/02 01:38:04;;;;;;;13.90;7.45;;;13.50;99.90;;;;;;5036693;28;20163;-84
2021/09/02 01:40:35;;;;;;;17.45;8.23;;;13.50;99.90;;;;;;5055118;28;20021;-84
2021/09/02 01:43:02;;;;;;;12.88;7.60;;;13.50;99.90;;;;;;5037019;28;20029;-84
2021/09/02 01:45:28;;;;;;;13.02;7.32;;;13.50;99.90;;;;;;5036750;28;20028;-84
2021/09/02 01:47:57;;;;;;;14.25;7.93;;;13.60;99.90;;;;;;5034388;28;20025;-84
2021/09/02 01:50:25;;;;;;;14.00;8.10;;;13.60;99.90;;;;;;5033305;28;20036;-85
2021/09/02 01:52:57;;;;;;;13.93;8.23;;;13.50;99.90;;;;;;5051209;28;20041;-85
2021/09/02 01:55:24;;;;;;;15.25;7.93;;;13.50;99.90;;;;;;5033883;28;20043;-86
2021/09/02 01:57:51;;;;;;;16.33;8.82;;;13.50;99.90;;;;;;5033995;28;20500;-84
2021/09/02 02:00:18;;;;;;;12.98;7.70;;;13.50;99.90;;;;;;5033170;28;20032;-84
2021/09/02 02:02:44;;;;;;;12.52;7.70;;;13.50;99.90;;;;;;5033845;28;20021;-85
2021/09/02 02:05:11;;;;;;;17.70;8.40;;;13.50;99.90;;;;;;5037535;28;20024;-85
2021/09/02 02:07:41;;;;;;;14.10;8.48;;;13.50;99.90;;;;;;5056574;28;20029;-85
2021/09/02 02:10:07;;;;;;;;;;;13.50;99.90;;;;;;5038018;28;20028;-85
2021/09/02 02:12:33;;;;;;;16.20;8.15;;;13.50;99.90;;;;;;5037178;28;19948;-83
2021/09/02 02:14:59;;;;;;;14.55;8.55;;;13.50;99.90;;;;;;5037377;28;20071;-85
2021/09/02 02:17:25;;;;;;;15.52;8.65;;;13.60;99.90;;;;;;5037514;28;20047;-85
2021/09/02 02:19:51;;;;;;;17.00;9.70;;;13.50;99.90;;;;;;5036799;28;20449;-85
2021/09/02 02:22:16;;;;;;;16.38;10.23;;;13.50;99.90;;;;;;5054929;28;20056;-85
2021/09/02 02:24:42;;;;;;;16.30;9.10;;;13.50;99.90;;;;;;5037217;28;20028;-85
2021/09/02 02:27:08;;;;;;;21.55;10.07;;;13.50;99.90;;;;;;5037108;28;20025;-85
2021/09/02 02:29:33;;;;;;;16.23;9.73;;;13.50;99.90;;;;;;5054316;28;20028;-84
2021/09/02 02:31:59;;;;;;;20.67;10.20;;;13.50;99.90;;;;;;5036960;28;20033;-85
2021/09/02 02:34:25;;;;;;;18.17;10.07;;;13.50;99.90;;;;;;5037159;28;20029;-85
2021/09/02 02:36:50;;;;;;;16.85;10.18;;;13.50;99.90;;;;;;5053502;28;20079;-85
2021/09/02 02:39:16;;;;;;;17.23;9.85;;;13.40;99.90;;;;;;5036407;28;20021;-85
2021/09/02 02:41:42;;;;;;;17.63;10.38;;;13.40;99.90;;;;;;5036821;28;20029;-85
2021/09/02 02:44:07;;;;;;;17.42;9.73;;;13.40;99.90;;;;;;5036884;28;20309;-85
2021/09/02 02:46:34;;;;;;;19.85;11.32;;;13.50;99.90;;;;;;5054792;28;20393;-85
2021/09/02 02:48:59;;;;;;;16.92;11.13;;;13.40;99.90;;;;;;5035941;28;20548;-85
2021/09/02 02:51:25;;;;;;;21.58;11.57;;;13.40;99.90;;;;;;5054628;28;20067;-85
2021/09/02 02:53:51;;;;;;;20.15;10.70;;;13.40;99.90;;;;;;5053039;28;20045;-84
2021/09/02 02:56:17;;;;;;;19.35;10.15;;;13.40;99.90;;;;;;5054665;28;20029;-84
2021/09/02 02:58:42;;;;;;;19.75;11.13;;;13.40;99.90;;;;;;5036688;28;20491;-85
2021/09/02 03:01:08;;;;;;;16.88;10.02;;;13.40;99.90;;;;;;5035202;28;20037;-84
2021/09/02 03:03:34;;;;;;;17.95;9.95;;;13.40;99.90;;;;;;5035428;28;20029;-85
2021/09/02 03:05:59;;;;;;;18.33;10.60;;;13.40;99.90;;;;;;5036301;28;20417;-85
2021/09/02 03:08:25;;;;;;;16.63;10.43;;;13.50;99.90;;;;;;5036447;28;20538;-84
2021/09/02 03:10:51;;;;;;;19.25;11.23;;;13.40;99.90;;;;;;5052463;28;20037;-84
2021/09/02 03:13:16;;;;;;;16.88;9.45;;;13.50;99.90;;;;;;5035948;28;20028;-84
2021/09/02 03:15:42;;;;;;;17.25;10.13;;;13.40;99.90;;;;;;5035736;28;20474;-85
2021/09/02 03:18:08;;;;;;;15.88;9.70;;;13.40;99.90;;;;;;5036283;28;20025;-85
2021/09/02 03:20:33;;;;;;;16.25;9.00;;;13.40;99.90;;;;;;5035647;28;20029;-85
2021/09/02 03:22:59;;;;;;;16.58;9.57;;;13.40;99.90;;;;;;5035926;28;20025;-85
2021/09/02 03:25:25;;;;;;;14.85;8.48;;;13.40;99.90;;;;;;5054024;28;20192;-84
2021/09/02 03:27:50;;;;;;;16.45;9.38;;;13.40;99.90;;;;;;5053952;28;20482;-85
2021/09/02 03:30:16;;;;;;;16.83;9.27;;;13.40;99.90;;;;;;5035486;28;20397;-85
2021/09/02 03:32:42;;;;;;;15.35;9.73;;;13.30;99.90;;;;;;5035861;28;20033;-85
2021/09/02 03:35:08;;;;;;;14.82;9.80;;;13.30;99.90;;;;;;5035757;28;20124;-85
2021/09/02 03:37:34;;;;;;;17.98;9.48;;;13.20;99.90;;;;;;5035751;28;20551;-85
2021/09/02 03:40:00;;;;;;;16.75;9.32;;;13.30;99.90;;;;;;5035679;28;20033;-84
2021/09/02 03:42:26;;;;;;;18.73;9.95;;;13.20;99.90;;;;;;5053482;28;20481;-85
2021/09/02 03:44:52;;;;;;;14.98;9.77;;;13.20;99.90;;;;;;5035797;28;20062;-84
2021/09/02 03:47:18;;;;;;;16.95;10.15;;;13.20;99.90;;;;;;5035643;28;20099;-85
2021/09/02 03:49:44;;;;;;;15.80;9.75;;;13.30;99.90;;;;;;5035025;28;20061;-86
2021/09/02 03:52:09;;;;;;;18.80;10.07;;;13.30;99.90;;;;;;5035388;28;20037;-85
2021/09/02 03:54:35;;;;;;;19.75;10.65;;;13.30;99.90;;;;;;5035614;28;20033;-85
2021/09/02 03:57:01;;;;;;;17.98;11.15;;;13.40;99.90;;;;;;5035602;28;20060;-85
2021/09/02 03:59:27;;;;;;;17.10;11.00;;;13.40;99.90;;;;;;5052751;28;20032;-85
2021/09/02 04:01:52;;;;;;;17.98;10.32;;;13.50;99.90;;;;;;5053207;28;20035;-85
2021/09/02 04:04:18;;;;;;;18.58;10.88;;;13.50;99.90;;;;;;5053176;28;20075;-85
2021/09/02 04:06:43;;;;;;;19.02;11.43;;;13.50;99.90;;;;;;5035505;28;20478;-85
2021/09/02 04:09:10;;;;;;;20.25;12.02;;;13.60;99.90;;;;;;5034729;28;20060;-85
2021/09/02 04:11:35;;;;;;;18.13;10.70;;;13.60;99.90;;;;;;5035151;28;20028;-86
2021/09/02 04:14:01;;;;;;;18.02;11.88;;;13.70;99.90;;;;;;5035211;28;20504;-85
2021/09/02 04:16:26;;;;;;;27.48;12.40;;;13.70;99.90;;;;;;5051596;28;20025;-85
2021/09/02 04:18:55;;;;;;;30.30;15.77;;;13.80;99.90;;;;;;5051273;28;20025;-85
2021/09/02 04:21:21;;;;;;;28.00;16.25;;;13.70;99.90;;;;;;5034809;28;20021;-86
2021/09/02 04:23:48;;;;;;;25.48;13.85;;;13.80;99.90;;;;;;5034690;28;20036;-85
2021/09/02 04:26:14;;;;;;;19.85;12.18;;;13.80;99.90;;;;;;5052002;28;20020;-86
2021/09/02 04:28:39;;;;;;;19.65;11.38;;;13.80;99.90;;;;;;5035036;28;20028;-85
2021/09/02 04:31:05;;;;;;;20.48;12.73;;;13.80;99.90;;;;;;5052242;28;20100;-86
2021/09/02 04:33:31;;;;;;;22.20;13.27;;;13.80;99.90;;;;;;5034727;28;20078;-85
2021/09/02 04:35:56;;;;;;;22.17;12.25;;;13.90;99.90;;;;;;5034717;28;20508;-85
2021/09/02 04:38:22;;;;;;;20.98;12.45;;;13.90;99.90;;;;;;5034862;28;20573;-85
2021/09/02 04:40:49;;;;;;;21.08;12.55;;;13.90;99.90;;;;;;5034091;28;20025;-86
2021/09/02 04:43:15;;;;;;;21.27;12.18;;;13.90;99.90;;;;;;5034503;28;20025;-86
2021/09/02 04:45:41;;;;;;;18.70;11.32;;;13.80;99.90;;;;;;5052431;28;20079;-86
2021/09/02 04:48:18;;;;;;;19.00;11.32;;;13.70;99.90;;;;;;5034481;28;20025;-86
2021/09/02 04:50:46;;;;;;;23.48;13.00;;;13.80;99.90;;;;;;5033986;28;20036;-85
2021/09/02 04:53:11;;;;;;;20.23;12.05;;;13.70;99.90;;;;;;5054472;28;20040;-86
2021/09/02 04:55:38;;;;;;;23.02;12.70;;;13.70;99.90;;;;;;5038932;28;20028;-85
2021/09/02 04:58:05;;;;;;;20.85;12.70;;;13.70;99.90;;;;;;5039158;28;20031;-85
2021/09/02 05:00:33;;;;;;;24.67;12.73;;;13.70;99.90;;;;;;5039338;28;20029;-86
2021/09/02 05:02:59;;;;;;;22.25;13.25;;;13.70;99.90;;;;;;5039269;28;20044;-86
2021/09/02 05:05:25;;;;;;;17.73;11.98;;;13.70;99.90;;;;;;5038862;28;20520;-86
2021/09/02 05:07:50;;;;;;;21.80;13.05;;;13.80;99.90;;;;;;5055061;28;20120;-86
2021/09/02 05:10:16;;;;;;;21.75;12.43;;;13.70;99.90;;;;;;5054715;28;20070;-86
2021/09/02 05:12:42;;;;;;;23.13;13.85;;;13.80;99.90;;;;;;5039559;28;20120;-86
2021/09/02 05:15:08;;;;;;;24.52;14.02;;;13.70;99.90;;;;;;5038575;28;20031;-86
2021/09/02 05:17:33;;;;;;;25.40;14.00;;;13.80;99.90;;;;;;5056571;28;20028;-86
2021/09/02 05:19:59;;;;;;;26.50;13.70;;;13.70;99.90;;;;;;5037567;28;20021;-85
2021/09/02 05:22:25;;;;;;;22.23;13.30;;;13.80;99.90;;;;;;5055864;28;20295;-86
2021/09/02 05:24:50;;;;;;;23.45;13.70;;;13.80;99.90;;;;;;5056625;28;20522;-86
2021/09/02 05:27:16;;;;;;;28.00;13.85;;;13.80;99.90;;;;;;5038763;28;20082;-86
2021/09/02 05:29:42;;;;;;;22.92;13.43;;;13.80;99.90;;;;;;5038936;28;20112;-87
2021/09/02 05:32:08;;;;;;;26.38;14.25;;;13.80;99.90;;;;;;5041018;28;20071;-86
2021/09/02 05:34:34;;;;;;;21.20;13.40;;;13.80;99.90;;;;;;5039242;28;20088;-85
2021/09/02 05:37:00;;;;;;;24.80;13.63;;;13.80;99.90;;;;;;5036306;28;20017;-85
2021/09/02 05:39:26;;;;;;;24.30;14.02;;;13.80;99.90;;;;;;5039407;28;20017;-85
2021/09/02 05:41:52;;;;;;;25.48;12.93;;;13.80;99.90;;;;;;5039342;28;20021;-86
2021/09/02 05:44:18;;;;;;;25.20;13.65;;;13.90;99.90;;;;;;5057847;28;20025;-85
2021/09/02 05:46:44;;;;;;;26.92;14.45;;;13.90;99.90;;;;;;5058242;28;20028;-85
2021/09/02 05:49:09;;;;;;;24.33;14.35;;;13.80;99.90;;;;;;5039119;28;20083;-85
2021/09/02 05:51:35;;;;;;;28.23;15.02;;;13.90;99.90;;;;;;5055809;28;20470;-85
2021/09/02 05:54:01;;;;;;;31.05;15.75;;;13.90;99.90;;;;;;5038947;28;20025;-86
2021/09/02 05:56:26;;;;;;;27.40;15.00;;;14.00;99.90;;;;;;5055354;28;20029;-86
2021/09/02 05:58:52;;;;;;;26.60;14.38;;;14.00;99.90;;;;;;5056487;28;20048;-85
2021/09/02 06:01:18;;;;;;;30.38;15.18;;;14.10;99.90;;;;;;5055495;28;20493;-85
2021/09/02 06:03:44;;;;;;;25.42;14.63;;;14.10;99.90;;;;;;5056606;28;20171;-85
2021/09/02 06:06:10;;;;;;;26.48;14.88;;;14.10;99.90;;;;;;5038230;28;20025;-85
2021/09/02 06:08:35;;;;;;;29.63;15.13;;;14.10;99.90;;;;;;5056004;28;20497;-85
2021/09/02 06:11:03;;;;;;;24.58;13.63;;;14.10;99.90;;;;;;5037559;28;20033;-85
2021/09/02 06:13:33;;;;;;;28.30;15.00;;;14.20;99.90;;;;;;5037781;28;20644;-85
2021/09/02 06:15:59;;;;;;;25.67;14.35;;;14.20;99.90;;;;;;5038767;28;20115;-85
2021/09/02 06:18:25;;;;;;;23.70;13.85;;;14.20;99.90;;;;;;5056078;28;20017;-85
2021/09/02 06:20:51;;;;;;;26.83;15.18;;;14.30;99.90;;;;;;5037753;28;20094;-85
2021/09/02 06:23:17;;;;;;;25.48;15.07;;;14.30;99.90;;;;;;5056014;28;20029;-86
2021/09/02 06:25:42;;;;;;;29.92;15.52;;;14.30;99.90;;;;;;5038018;28;20390;-85
2021/09/02 06:28:08;;;;;;;28.67;14.85;;;14.40;99.90;;;;;;5055856;28;20021;-85
2021/09/02 06:30:34;;;;;;;28.88;16.20;;;14.40;99.90;;;;;;5055044;28;20029;-86
2021/09/02 06:33:00;;;;;;;27.52;15.05;;;14.50;99.90;;;;;;5055727;28;20029;-85
2021/09/02 06:35:25;;;;;;;27.90;14.93;;;14.50;99.90;;;;;;5055660;28;20025;-86
2021/09/02 06:37:51;;;;;;;33.67;17.17;;;14.50;99.90;;;;;;5055598;28;20032;-87
2021/09/02 06:40:17;;;;;;;34.88;18.42;;;14.60;99.90;;;;;;5037404;28;20127;-85
2021/09/02 06:42:42;;;;;;;31.63;16.42;;;14.60;99.90;;;;;;5037478;28;20050;-85
2021/09/02 06:45:09;;;;;;;27.67;15.65;;;14.60;99.90;;;;;;5055818;28;20385;-85
2021/09/02 06:47:36;;;;;;;29.42;15.38;;;14.60;99.90;;;;;;5055995;28;20421;-85
2021/09/02 06:50:02;;;;;;;29.25;16.05;;;14.70;99.90;;;;;;5053971;28;20025;-86
2021/09/02 06:52:28;;;;;;;30.90;16.52;;;14.80;99.90;;;;;;5037237;28;20098;-85
2021/09/02 06:54:53;;;;;;;28.67;15.52;;;14.80;99.90;;;;;;5053721;28;20029;-85
2021/09/02 06:57:19;;;;;;;33.65;16.60;;;14.80;99.90;;;;;;5037567;28;20021;-85
2021/09/02 06:59:44;;;;;;;29.38;16.98;;;14.90;99.90;;;;;;5055045;28;20382;-85
2021/09/02 07:02:10;;;;;;;31.13;17.45;;;14.80;99.90;;;;;;5037226;28;20107;-85
2021/09/02 07:04:36;;;;;;;38.55;18.23;;;14.80;99.90;;;;;;5037614;28;20478;-86
2021/09/02 07:07:01;;;;;;;33.72;17.05;;;14.90;99.90;;;;;;5036916;28;20075;-85
2021/09/02 07:09:27;;;;;;;30.05;16.73;;;14.90;99.90;;;;;;5054620;28;20029;-86
2021/09/02 07:11:53;;;;;;;28.40;16.75;;;14.90;99.90;;;;;;5055042;28;20032;-85
2021/09/02 07:14:18;;;;;;;34.55;17.73;;;15.00;99.90;;;;;;5037431;28;20036;-86
2021/09/02 07:16:44;;;;;;;32.08;17.67;;;15.00;99.90;;;;;;5054875;28;20032;-85
2021/09/02 07:19:09;;;;;;;30.33;17.05;;;15.00;99.90;;;;;;5053054;28;20340;-85
2021/09/02 07:21:35;;;;;;;28.70;17.92;;;15.10;99.90;;;;;;5036566;28;20025;-86
2021/09/02 07:24:01;;;;;;;36.30;17.48;;;15.10;99.90;;;;;;5036748;28;20025;-85
2021/09/02 07:26:26;;;;;;;33.25;17.98;;;15.10;99.90;;;;;;5036824;28;20025;-86
2021/09/02 07:28:52;;;;;;;36.35;17.48;;;15.20;99.90;;;;;;5037232;28;20025;-86
2021/09/02 07:31:18;;;;;;;27.65;16.20;;;15.20;99.90;;;;;;5054648;28;20021;-85
2021/09/02 07:33:43;;;;;;;29.65;16.42;;;15.20;99.90;;;;;;5053289;28;20025;-85
2021/09/02 07:36:09;;;;;;;29.05;16.63;;;15.20;99.90;;;;;;5036533;28;20021;-85
2021/09/02 07:38:35;;;;;;;32.00;16.98;;;15.30;99.90;;;;;;5036709;28;20052;-85
2021/09/02 07:41:01;;;;;;;29.85;15.70;;;15.30;99.90;;;;;;5053813;28;20058;-85
2021/09/02 07:43:27;;;;;;;30.95;17.27;;;15.40;99.90;;;;;;5036473;28;20017;-85
2021/09/02 07:45:53;;;;;;;31.55;17.83;;;15.40;99.90;;;;;;5036432;28;20044;-86
2021/09/02 07:48:18;;;;;;;30.00;16.80;;;15.50;99.90;;;;;;5036550;28;20033;-85
2021/09/02 07:50:44;;;;;;;33.25;17.30;;;15.50;99.90;;;;;;5036154;28;20378;-85
2021/09/02 07:53:09;;;;;;;28.05;16.45;;;15.50;99.90;;;;;;5036204;28;20036;-85
2021/09/02 07:55:35;;;;;;;27.33;15.05;;;15.60;99.90;;;;;;5036311;28;20116;-85
2021/09/02 07:58:01;;;;;;;23.20;13.55;;;15.70;99.90;;;;;;5036495;28;20036;-85
2021/09/02 08:00:27;;;;;;;32.20;17.05;;;15.70;99.90;;;;;;5035617;28;20266;-85
2021/09/02 08:02:52;;;;;;;30.70;17.02;;;15.80;99.90;;;;;;5054302;28;20025;-86
2021/09/02 08:05:18;;;;;;;38.38;18.30;;;15.80;99.90;;;;;;5036005;28;20115;-85
2021/09/02 08:07:55;;;;;;;26.52;14.90;;;15.90;99.90;;;;;;5036119;28;20435;-86
2021/09/02 08:10:24;;;;;;;31.95;17.10;;;15.90;99.90;;;;;;5035909;28;20032;-85
2021/09/02 08:12:51;;;;;;;29.92;16.20;;;16.00;99.90;;;;;;5036504;28;20040;-86
2021/09/02 08:15:17;;;;;;;32.83;17.73;;;16.00;99.90;;;;;;5053941;28;20039;-85
2021/09/02 08:17:45;;;;;;;30.38;16.58;;;16.10;99.90;;;;;;5054299;28;20384;-86
2021/09/02 08:20:12;;;;;;;27.15;15.88;;;16.10;99.90;;;;;;5035543;28;20479;-85
2021/09/02 08:22:39;;;;;;;26.58;15.60;;;16.10;99.90;;;;;;5053458;28;20027;-85
2021/09/02 08:25:06;;;;;;;34.60;17.63;;;16.20;99.90;;;;;;5035688;28;20036;-85
2021/09/02 08:27:31;;;;;;;30.92;15.88;;;16.20;99.90;;;;;;5035622;28;20485;-86
2021/09/02 08:29:57;;;;;;;28.90;16.17;;;16.30;99.90;;;;;;5035059;28;20028;-85
2021/09/02 08:32:23;;;;;;;27.48;15.38;;;16.20;99.90;;;;;;5035659;28;20025;-85
2021/09/02 08:34:48;;;;;;;25.38;14.80;;;16.20;99.90;;;;;;5053755;28;20025;-85
2021/09/02 08:37:14;;;;;;;27.30;15.18;;;16.30;99.90;;;;;;5053640;28;20432;-85
2021/09/02 08:39:40;;;;;;;26.58;15.02;;;16.30;99.90;;;;;;5035040;28;20474;-85
2021/09/02 08:42:05;;;;;;;25.08;13.50;;;16.30;99.90;;;;;;5035713;28;20028;-85
2021/09/02 08:44:31;;;;;;;22.27;13.10;;;16.30;99.90;;;;;;5053443;28;20497;-86
2021/09/02 08:46:57;;;;;;;21.38;11.57;;;16.40;99.90;;;;;;5035892;28;20024;-86
2021/09/02 08:49:23;;;;;;;26.77;12.98;;;16.40;99.90;;;;;;5034597;28;20060;-86
2021/09/02 08:51:50;;;;;;;20.25;10.60;;;16.40;99.90;;;;;;5035115;28;20401;-85
2021/09/02 08:54:17;;;;;;;24.67;12.40;;;16.40;99.90;;;;;;5052203;28;20024;-85
2021/09/02 08:56:42;;;;;;;22.15;9.93;;;16.50;99.90;;;;;;5035236;28;20035;-86
2021/09/02 08:59:08;;;;;;;18.77;9.40;;;16.60;99.90;;;;;;5052696;28;20025;-86
2021/09/02 09:01:33;;;;;;;17.95;9.60;;;16.60;99.90;;;;;;5035247;28;20385;-86
2021/09/02 09:04:12;;;;;;;25.27;11.50;;;16.60;99.90;;;;;;5035496;28;20077;-85
2021/09/02 09:06:39;;;;;;;18.77;8.93;;;16.70;99.90;;;;;;5035286;28;20025;-85
2021/09/02 09:09:12;;;;;;;19.30;9.60;;;16.70;99.90;;;;;;5034561;28;20035;-86
2021/09/02 09:11:47;;;;;;;17.65;9.32;;;16.80;99.90;;;;;;5052602;28;20064;-85
2021/09/02 09:14:17;;;;;;;15.18;8.40;;;16.80;99.90;;;;;;5035628;28;20053;-85
2021/09/02 09:16:50;;;;;;;25.00;10.20;;;16.80;99.90;;;;;;5035633;28;20025;-86
2021/09/02 09:19:38;;;;;;;17.17;9.30;;;16.90;99.90;;;;;;5034972;28;20135;-85
2021/09/02 09:22:05;;;;;;;20.60;9.70;;;16.90;99.90;;;;;;5052709;28;20021;-85
2021/09/02 09:24:41;;;;;;;16.20;8.73;;;16.90;99.90;;;;;;5053478;28;20509;-86
2021/09/02 09:27:08;;;;;;;22.02;10.27;;;16.90;99.90;;;;;;5035646;28;20043;-86
2021/09/02 09:29:34;;;;;;;17.42;9.82;;;16.90;99.90;;;;;;5052777;28;20384;-86
2021/09/02 09:32:15;;;;;;;20.00;9.57;;;16.90;99.90;;;;;;5053189;28;20108;-85
2021/09/02 09:34:52;;;;;;;22.10;11.07;;;16.90;99.90;;;;;;5035331;28;20056;-86
2021/09/02 09:37:19;;;;;;;20.38;11.32;;;17.00;99.90;;;;;;5051806;28;20028;-85
2021/09/02 09:39:46;;;;;;;20.92;11.15;;;17.00;99.90;;;;;;5051460;28;20119;-85
2021/09/02 09:42:11;;;;;;;21.77;10.00;;;17.10;99.90;;;;;;5035479;28;20036;-86
2021/09/02 09:44:40;;;;;;;17.48;10.02;;;17.20;99.90;;;;;;5053210;28;20025;-86
2021/09/02 09:47:22;;;;;;;19.00;10.95;;;17.10;99.90;;;;;;5035493;28;20040;-86
2021/09/02 09:49:54;;;;;;;24.30;12.23;;;17.20;99.90;;;;;;5053067;28;20304;-86
2021/09/02 09:52:35;;;;;;;23.58;11.38;;;17.20;99.90;;;;;;5052854;28;20105;-86
2021/09/02 09:55:10;;;;;;;24.52;10.60;;;17.30;99.90;;;;;;5053403;28;20028;-86
2021/09/02 09:57:38;;;;;;;21.85;11.02;;;17.30;99.90;;;;;;5051943;28;20060;-85
2021/09/02 10:00:08;;;;;;;24.17;11.43;;;17.40;99.90;;;;;;5034110;28;20497;-85
2021/09/02 10:02:40;;;;;;;17.90;10.55;;;17.40;99.90;;;;;;5052430;28;20474;-85
2021/09/02 10:05:08;;;;;;;19.15;10.05;;;17.40;99.90;;;;;;5051780;28;20032;-85
2021/09/02 10:07:35;;;;;;;23.50;11.88;;;17.50;99.90;;;;;;5052703;28;20029;-86
2021/09/02 10:10:02;;;;;;;20.08;11.00;;;17.50;99.90;;;;;;5034392;28;20155;-86
2021/09/02 10:12:34;;;;;;;20.42;11.13;;;17.50;99.90;;;;;;5052996;28;20028;-86
2021/09/02 10:15:03;;;;;;;18.95;10.65;;;17.50;99.90;;;;;;5034720;28;20033;-86
2021/09/02 10:17:30;;;;;;;18.65;10.43;;;17.60;99.90;;;;;;5035068;28;20112;-86
2021/09/02 10:19:56;;;;;;;25.98;12.75;;;17.60;99.90;;;;;;5034290;28;20112;-86
2021/09/02 10:22:21;;;;;;;22.50;11.50;;;17.70;99.90;;;;;;5051239;28;20056;-86
2021/09/02 10:24:48;;;;;;;22.95;12.15;;;17.70;99.90;;;;;;5036736;28;20048;-86
2021/09/02 10:27:17;;;;;;;21.98;11.95;;;17.80;99.90;;;;;;5038362;28;20025;-85
2021/09/02 10:29:44;;;;;;;17.60;10.98;;;17.90;99.90;;;;;;5037572;28;20532;-86
2021/09/02 10:32:26;;;;;;;20.48;10.82;;;17.80;99.90;;;;;;5037620;28;20143;-86
2021/09/02 10:35:12;;;;;;;20.08;10.80;;;17.80;99.90;;;;;;5038121;28;20040;-86
2021/09/02 10:37:43;;;;;;;24.17;12.15;;;17.80;99.90;;;;;;5038301;28;20029;-85
2021/09/02 10:40:17;;;;;;;26.35;12.38;;;17.80;99.90;;;;;;5055583;28;20477;-85
2021/09/02 10:42:56;;;;;;;20.38;11.75;;;17.80;99.90;;;;;;5038211;28;20425;-86
2021/09/02 10:45:25;;;;;;;19.85;11.27;;;17.80;99.90;;;;;;5038336;28;20551;-86
2021/09/02 10:47:51;;;;;;;24.92;11.98;;;17.90;99.90;;;;;;5056296;28;20033;-85
2021/09/02 10:50:22;;;;;;;19.90;10.60;;;18.00;99.90;;;;;;5054175;28;20124;-86
2021/09/02 10:52:49;;;;;;;18.77;10.32;;;18.00;99.90;;;;;;5038460;28;20097;-85
2021/09/02 10:55:30;;;;;;;20.27;11.65;;;18.00;99.90;;;;;;5038314;28;20025;-85
2021/09/02 10:58:01;;;;;;;19.15;9.88;;;18.00;99.90;;;;;;5038651;28;20071;-85
2021/09/02 11:00:40;;;;;;;16.73;9.73;;;18.10;99.90;;;;;;5055806;28;20021;-85
2021/09/02 11:03:25;;;;;;;17.30;10.10;;;18.00;99.90;;;;;;5056512;28;20020;-85
2021/09/02 11:05:57;;;;;;;18.95;10.45;;;18.00;99.90;;;;;;5037991;28;20115;-85
2021/09/02 11:08:32;;;;;;;17.90;9.52;;;18.00;99.90;;;;;;5038412;28;20032;-85
2021/09/02 11:11:21;;;;;;;19.70;10.27;;;18.00;99.90;;;;;;5037612;28;20482;-85
2021/09/02 11:13:51;;;;;;;15.15;9.02;;;18.00;99.90;;;;;;5056375;28;20028;-85
2021/09/02 11:16:20;;;;;;;18.35;9.20;;;18.00;99.90;;;;;;5056000;28;20412;-85
2021/09/02 11:18:49;;;;;;;17.50;9.60;;;18.00;99.90;;;;;;5038095;28;20028;-85
2021/09/02 11:21:18;;;;;;;16.27;9.82;;;18.10;99.90;;;;;;5037278;28;20370;-85
2021/09/02 11:23:45;;;;;;;17.88;9.50;;;18.10;99.90;;;;;;5038019;28;20620;-85
2021/09/02 11:26:37;;;;;;;17.60;9.65;;;18.10;99.90;;;;;;5038338;28;20025;-85
2021/09/02 11:29:03;;;;;;;16.65;9.45;;;18.20;99.90;;;;;;5055349;28;20025;-85
2021/09/02 11:31:30;;;;;;;14.88;9.18;;;18.20;99.90;;;;;;5037889;28;20032;-85
2021/09/02 11:33:56;;;;;;;15.85;8.77;;;18.30;99.90;;;;;;5056516;28;20020;-85
2021/09/02 11:36:22;;;;;;;14.25;8.25;;;18.30;99.90;;;;;;5037698;28;20123;-85
2021/09/02 11:38:50;;;;;;;12.73;8.52;;;18.30;99.90;;;;;;5055673;28;20436;-85
2021/09/02 11:41:20;;;;;;;13.02;8.45;;;18.40;99.90;;;;;;5037899;28;20112;-85
2021/09/02 11:43:49;;;;;;;17.38;10.07;;;18.50;99.90;;;;;;5056008;28;20436;-85
2021/09/02 11:46:15;;;;;;;15.93;10.27;;;18.40;99.90;;;;;;5038434;28;20024;-85
2021/09/02 11:48:59;;;;;;;16.00;9.95;;;18.50;99.80;;;;;;5056089;28;20037;-85
2021/09/02 11:51:32;;;;;;;17.88;9.07;;;18.40;99.80;;;;;;5038674;28;20029;-86
2021/09/02 11:54:08;;;;;;;17.95;9.85;;;18.40;99.90;;;;;;5038696;28;20028;-85
2021/09/02 11:56:35;;;;;;;17.60;9.15;;;18.30;99.90;;;;;;5038598;28;20021;-85
2021/09/02 11:59:03;;;;;;;14.98;9.13;;;18.20;99.90;;;;;;5037601;28;20050;-85
2021/09/02 12:01:28;;;;;;;13.20;8.43;;;18.20;99.90;;;;;;5038286;28;20024;-85
2021/09/02 12:03:55;;;;;;;15.45;9.00;;;18.30;99.90;;;;;;5037870;28;20025;-85
2021/09/02 12:06:23;;;;;;;15.38;8.48;;;18.30;99.90;;;;;;5037820;28;20028;-85
2021/09/02 12:08:49;;;;;;;15.70;9.38;;;18.40;99.90;;;;;;5055724;28;20021;-85
2021/09/02 12:11:18;;;;;;;14.07;8.70;;;18.50;99.90;;;;;;5037407;28;20029;-85
2021/09/02 12:13:43;;;;;;;15.93;9.35;;;18.50;99.90;;;;;;5037314;28;20055;-85
2021/09/02 12:16:10;;;;;;;18.73;9.50;;;18.60;99.90;;;;;;5055361;28;20033;-85
2021/09/02 12:18:39;;;;;;;17.48;9.77;;;18.60;99.60;;;;;;5037259;28;20021;-85
2021/09/02 12:21:24;;;;;;;13.77;8.40;;;18.60;99.30;;;;;;5037190;28;20056;-85
2021/09/02 12:23:51;;;;;;;14.85;7.93;;;18.70;99.40;;;;;;5056399;28;20021;-85
2021/09/02 12:26:20;;;;;;;20.15;9.93;;;18.70;99.60;;;;;;5037403;28;20025;-85
2021/09/02 12:28:47;;;;;;;16.40;9.15;;;18.70;99.20;;;;;;5055882;28;20025;-85
2021/09/02 12:31:32;;;;;;;18.95;9.60;;;18.70;99.10;;;;;;5037688;28;20055;-85